createdAt,value
2019-03-27T00:02:12.720Z,18.61
2019-03-27T00:04:38.988Z,18.10
2019-03-27T00:07:05.189Z,18.53
2019-03-27T00:09:31.348Z,17.21
2019-03-27T00:11:57.620Z,18.27
2019-03-27T00:14:23.809Z,18.37
2019-03-27T00:16:49.979Z,18.46
2019-03-27T00:19:16.143Z,19.11
2019-03-27T00:21:42.348Z,17.97
2019-03-27T00:24:08.518Z,19.12
2019-03-27T00:26:34.686Z,19.28
2019-03-27T00:29:00.990Z,19.46
2019-03-27T00:31:27.159Z,19.60
2019-03-27T00:33:53.323Z,19.68
2019-03-27T00:36:19.618Z,19.69
2019-03-27T00:38:45.775Z,19.73
2019-03-27T00:41:12.040Z,19.50
2019-03-27T00:43:38.234Z,19.48
2019-03-27T00:46:04.515Z,19.24
2019-03-27T00:48:30.675Z,19.62
2019-03-27T00:50:56.975Z,19.52
2019-03-27T00:53:23.139Z,19.78
2019-03-27T00:55:49.291Z,20.19
2019-03-27T00:58:15.502Z,20.16
2019-03-27T01:00:45.262Z,20.14
2019-03-27T01:03:11.539Z,19.99
2019-03-27T01:05:37.830Z,19.34
2019-03-27T01:08:04.091Z,18.66
2019-03-27T01:10:30.357Z,19.12
2019-03-27T01:12:56.551Z,18.29
2019-03-27T01:15:22.714Z,18.40
2019-03-27T01:17:48.875Z,18.58
2019-03-27T01:20:15.076Z,19.32
2019-03-27T01:22:41.246Z,19.79
2019-03-27T01:25:08.411Z,19.83
2019-03-27T01:27:35.738Z,19.49
2019-03-27T01:30:03.075Z,19.04
2019-03-27T01:32:29.241Z,18.71
2019-03-27T01:34:55.546Z,18.84
2019-03-27T01:37:21.708Z,18.81
2019-03-27T01:39:47.976Z,18.68
2019-03-27T01:42:14.173Z,19.12
2019-03-27T01:44:40.334Z,18.78
2019-03-27T01:47:06.497Z,18.68
2019-03-27T01:49:32.802Z,19.36
2019-03-27T01:51:58.977Z,18.44
2019-03-27T01:54:25.148Z,17.57
2019-03-27T01:56:51.337Z,18.97
2019-03-27T01:59:17.552Z,18.79
2019-03-27T02:01:43.829Z,19.18
2019-03-27T02:04:10.037Z,19.41
2019-03-27T02:06:36.211Z,19.53
2019-03-27T02:09:03.873Z,18.37
2019-03-27T02:11:30.072Z,17.37
2019-03-27T02:13:56.335Z,17.83
2019-03-27T02:16:22.664Z,18.56
2019-03-27T02:18:48.854Z,18.15
2019-03-27T02:21:15.022Z,18.40
2019-03-27T02:23:41.290Z,17.93
2019-03-27T02:26:07.482Z,17.98
2019-03-27T02:28:33.748Z,18.44
2019-03-27T02:30:59.915Z,18.86
2019-03-27T02:33:26.099Z,19.10
2019-03-27T02:35:52.261Z,19.18
2019-03-27T02:38:18.434Z,19.01
2019-03-27T02:40:44.642Z,19.52
2019-03-27T02:43:10.906Z,19.43
2019-03-27T02:45:37.071Z,19.57
2019-03-27T02:48:03.289Z,19.27
2019-03-27T02:50:29.445Z,19.47
2019-03-27T02:52:55.611Z,18.87
2019-03-27T02:55:21.815Z,19.14
2019-03-27T02:57:47.984Z,18.64
2019-03-27T03:00:14.899Z,19.02
2019-03-27T03:02:41.198Z,19.14
2019-03-27T03:05:08.162Z,19.18
2019-03-27T03:07:35.429Z,19.08
2019-03-27T03:10:01.933Z,19.21
2019-03-27T03:12:28.090Z,18.88
2019-03-27T03:14:54.256Z,18.48
2019-03-27T03:17:20.456Z,18.31
2019-03-27T03:19:46.633Z,18.66
2019-03-27T03:22:12.862Z,18.64
2019-03-27T03:24:39.185Z,18.28
2019-03-27T03:27:05.356Z,18.03
2019-03-27T03:29:31.515Z,16.99
2019-03-27T03:31:57.725Z,17.43
2019-03-27T03:34:23.883Z,17.34
2019-03-27T03:36:50.046Z,17.71
2019-03-27T03:39:16.234Z,17.41
2019-03-27T03:41:42.597Z,17.17
2019-03-27T03:44:08.854Z,17.28
2019-03-27T03:46:35.053Z,17.28
2019-03-27T03:49:01.213Z,16.88
2019-03-27T03:51:27.787Z,17.52
2019-03-27T03:53:54.292Z,18.23
2019-03-27T03:56:22.056Z,18.22
2019-03-27T03:58:49.310Z,18.74
2019-03-27T04:01:18.470Z,18.39
2019-03-27T04:03:46.842Z,18.79
2019-03-27T04:06:13.105Z,18.36
2019-03-27T04:08:39.298Z,17.87
2019-03-27T04:11:05.467Z,17.90
2019-03-27T04:13:31.620Z,16.86
2019-03-27T04:15:57.925Z,16.60
2019-03-27T04:18:24.086Z,17.47
2019-03-27T04:20:50.271Z,16.95
2019-03-27T04:23:16.445Z,17.10
2019-03-27T04:26:07.050Z,17.13
2019-03-27T04:28:10.672Z,17.28
2019-03-27T04:30:36.873Z,17.26
2019-03-27T04:33:03.137Z,17.39
2019-03-27T04:35:29.298Z,17.51
2019-03-27T04:37:55.506Z,17.03
2019-03-27T04:40:21.683Z,17.41
2019-03-27T04:42:47.856Z,17.73
2019-03-27T04:45:15.665Z,17.45
2019-03-27T04:47:41.825Z,17.69
2019-03-27T04:50:08.084Z,18.05
2019-03-27T04:52:34.291Z,16.66
2019-03-27T04:55:00.449Z,16.83
2019-03-27T04:57:26.729Z,17.05
2019-03-27T04:59:52.939Z,17.65
2019-03-27T05:02:20.159Z,18.46
2019-03-27T05:04:46.420Z,18.67
2019-03-27T05:07:13.827Z,18.57
2019-03-27T05:09:40.281Z,17.27
2019-03-27T05:12:06.448Z,17.48
2019-03-27T05:14:32.643Z,17.07
2019-03-27T05:16:58.800Z,18.34
2019-03-27T05:19:25.146Z,17.70
2019-03-27T05:21:51.689Z,18.28
2019-03-27T05:24:17.871Z,18.05
2019-03-27T05:26:44.042Z,17.69
2019-03-27T05:29:10.293Z,17.32
2019-03-27T05:31:36.492Z,17.68
2019-03-27T05:34:02.662Z,17.25
2019-03-27T05:36:28.862Z,18.23
2019-03-27T05:38:55.035Z,18.21
2019-03-27T05:41:21.197Z,17.80
2019-03-27T05:43:47.399Z,18.61
2019-03-27T05:46:13.574Z,18.50
2019-03-27T05:48:39.846Z,18.11
2019-03-27T05:51:06.272Z,18.25
2019-03-27T05:53:32.533Z,18.24
2019-03-27T05:55:58.728Z,18.02
2019-03-27T05:58:24.924Z,17.89
2019-03-27T06:00:51.096Z,17.89
2019-03-27T06:03:18.588Z,17.78
2019-03-27T06:05:44.830Z,18.13
2019-03-27T06:08:10.993Z,17.67
2019-03-27T06:10:37.155Z,16.79
2019-03-27T06:13:03.363Z,18.22
2019-03-27T06:15:29.618Z,16.78
2019-03-27T06:17:55.791Z,18.12
2019-03-27T06:20:21.983Z,18.71
2019-03-27T06:22:48.156Z,19.15
2019-03-27T06:25:15.548Z,19.55
2019-03-27T06:27:41.898Z,19.15
2019-03-27T06:30:08.776Z,19.34
2019-03-27T06:32:35.337Z,19.27
2019-03-27T06:35:01.554Z,18.32
2019-03-27T06:37:27.729Z,19.16
2019-03-27T06:39:53.990Z,19.54
2019-03-27T06:42:20.179Z,20.01
2019-03-27T06:44:46.364Z,20.22
2019-03-27T06:47:12.684Z,20.75
2019-03-27T06:49:38.885Z,20.71
2019-03-27T06:52:05.047Z,20.01
2019-03-27T06:54:31.227Z,19.24
2019-03-27T06:56:57.431Z,18.89
2019-03-27T06:59:23.602Z,19.91
2019-03-27T07:01:49.771Z,20.98
2019-03-27T07:04:16.119Z,20.90
2019-03-27T07:06:42.289Z,20.25
2019-03-27T07:09:08.452Z,18.68
2019-03-27T07:11:34.671Z,19.51
2019-03-27T07:14:00.818Z,20.58
2019-03-27T07:16:26.990Z,21.31
2019-03-27T07:18:53.293Z,21.85
2019-03-27T07:21:19.467Z,20.96
2019-03-27T07:23:45.628Z,20.14
2019-03-27T07:26:11.823Z,19.31
2019-03-27T07:28:37.993Z,18.53
2019-03-27T07:31:05.113Z,19.16
2019-03-27T07:33:31.325Z,19.25
2019-03-27T07:35:57.483Z,19.31
2019-03-27T07:38:23.750Z,18.97
2019-03-27T07:40:49.952Z,18.22
2019-03-27T07:43:16.112Z,19.80
2019-03-27T07:45:42.280Z,18.45
2019-03-27T07:48:08.477Z,18.43
2019-03-27T07:50:35.024Z,17.84
2019-03-27T07:53:01.190Z,18.68
2019-03-27T07:55:27.584Z,18.30
2019-03-27T07:57:53.734Z,18.18
2019-03-27T08:00:21.708Z,18.52
2019-03-27T08:02:48.000Z,18.80
2019-03-27T08:05:14.212Z,18.29
2019-03-27T08:07:40.386Z,20.14
2019-03-27T08:10:06.773Z,20.80
2019-03-27T08:12:32.944Z,20.70
2019-03-27T08:14:59.108Z,20.29
2019-03-27T08:17:25.403Z,21.73
2019-03-27T08:19:51.682Z,19.56
2019-03-27T08:22:17.844Z,19.94
2019-03-27T08:24:44.140Z,18.97
2019-03-27T08:27:19.250Z,20.42
2019-03-27T08:29:45.407Z,20.80
2019-03-27T08:32:11.703Z,21.41
2019-03-27T08:34:37.866Z,18.91
2019-03-27T08:37:04.132Z,19.34
2019-03-27T08:39:30.333Z,21.13
2019-03-27T08:41:56.520Z,20.19
2019-03-27T08:44:22.689Z,20.23
2019-03-27T08:46:48.885Z,20.32
2019-03-27T08:49:21.889Z,20.78
2019-03-27T08:51:43.095Z,20.94
2019-03-27T08:54:09.282Z,21.26
2019-03-27T08:56:35.444Z,20.61
2019-03-27T08:59:01.602Z,19.28
2019-03-27T09:01:27.808Z,19.13
2019-03-27T09:03:54.028Z,21.24
2019-03-27T09:06:32.988Z,20.36
2019-03-27T09:08:48.598Z,21.06
2019-03-27T09:11:14.766Z,20.53
2019-03-27T09:13:40.931Z,20.41
2019-03-27T09:16:07.118Z,20.51
2019-03-27T09:18:33.281Z,21.98
2019-03-27T09:20:59.532Z,20.11
2019-03-27T09:23:25.937Z,20.60
2019-03-27T09:25:52.204Z,20.35
2019-03-27T09:28:18.363Z,20.28
2019-03-27T09:30:44.562Z,19.36
2019-03-27T09:33:10.718Z,18.45
2019-03-27T09:35:36.885Z,19.83
2019-03-27T09:38:03.192Z,19.86
2019-03-27T09:40:29.364Z,19.78
2019-03-27T09:42:55.641Z,20.36
2019-03-27T09:45:21.837Z,21.89
2019-03-27T09:47:48.104Z,23.62
2019-03-27T09:50:14.256Z,21.81
2019-03-27T09:52:40.553Z,20.90
2019-03-27T09:55:07.117Z,21.93
2019-03-27T09:57:33.285Z,22.38
2019-03-27T09:59:59.494Z,22.29
2019-03-27T10:02:25.777Z,23.93
2019-03-27T10:04:51.931Z,20.38
2019-03-27T10:07:18.171Z,20.29
2019-03-27T10:09:44.437Z,19.55
2019-03-27T10:12:10.597Z,21.13
2019-03-27T10:14:36.800Z,20.99
2019-03-27T10:17:02.986Z,21.48
2019-03-27T10:19:29.124Z,21.89
2019-03-27T10:21:55.334Z,22.81
2019-03-27T10:24:21.607Z,22.66
2019-03-27T10:26:47.772Z,22.66
2019-03-27T10:29:13.958Z,23.81
2019-03-27T10:31:40.631Z,21.27
2019-03-27T10:34:06.786Z,21.64
2019-03-27T10:36:32.997Z,22.85
2019-03-27T10:38:59.161Z,23.42
2019-03-27T10:41:25.322Z,23.27
2019-03-27T10:43:51.513Z,22.73
2019-03-27T10:46:17.809Z,23.54
2019-03-27T10:48:52.423Z,23.97
2019-03-27T10:51:12.068Z,22.64
2019-03-27T10:53:38.250Z,20.80
2019-03-27T10:56:04.509Z,21.73
2019-03-27T10:58:30.816Z,21.37
2019-03-27T11:00:56.974Z,21.92
2019-03-27T11:03:23.297Z,22.70
2019-03-27T11:05:49.602Z,22.60
2019-03-27T11:08:15.827Z,23.18
2019-03-27T11:10:41.989Z,23.30
2019-03-27T11:13:08.292Z,22.44
2019-03-27T11:15:34.561Z,23.76
2019-03-27T11:18:00.720Z,24.91
2019-03-27T11:20:31.101Z,23.69
2019-03-27T11:22:54.981Z,22.87
2019-03-27T11:25:21.144Z,23.27
2019-03-27T11:27:47.352Z,22.96
2019-03-27T11:30:13.809Z,24.50
2019-03-27T11:32:39.971Z,23.50
2019-03-27T11:35:06.383Z,23.59
2019-03-27T11:37:32.546Z,23.78
2019-03-27T11:39:58.707Z,23.22
2019-03-27T11:42:24.896Z,23.66
2019-03-27T11:44:51.063Z,24.68
2019-03-27T11:47:17.228Z,23.99
2019-03-27T11:49:43.426Z,22.93
2019-03-27T11:52:09.591Z,25.33
2019-03-27T11:54:35.755Z,24.94
2019-03-27T11:57:01.958Z,22.35
2019-03-27T11:59:28.218Z,22.59
2019-03-27T12:01:54.374Z,22.87
2019-03-27T12:04:20.615Z,22.37
2019-03-27T12:06:46.877Z,22.13
2019-03-27T12:09:13.117Z,23.51
2019-03-27T12:11:39.410Z,23.30
2019-03-27T12:14:05.698Z,22.77
2019-03-27T12:16:33.680Z,23.81
2019-03-27T12:19:01.720Z,24.87
2019-03-27T12:21:27.876Z,22.13
2019-03-27T12:23:54.036Z,21.40
2019-03-27T12:26:20.332Z,23.14
2019-03-27T12:28:46.487Z,23.94
2019-03-27T12:31:12.644Z,23.10
2019-03-27T12:33:38.849Z,22.44
2019-03-27T12:36:05.008Z,22.80
2019-03-27T12:38:31.291Z,24.28
2019-03-27T12:40:57.497Z,25.41
2019-03-27T12:43:23.766Z,25.11
2019-03-27T12:45:50.021Z,26.08
2019-03-27T12:48:16.205Z,23.49
2019-03-27T12:50:44.288Z,24.66
2019-03-27T12:53:10.524Z,23.34
2019-03-27T12:55:36.739Z,25.36
2019-03-27T12:58:03.703Z,24.44
2019-03-27T13:00:30.480Z,24.32
2019-03-27T13:02:56.967Z,24.02
2019-03-27T13:05:23.139Z,25.26
2019-03-27T13:07:50.461Z,24.07
2019-03-27T13:10:16.940Z,24.73
2019-03-27T13:12:43.127Z,25.52
2019-03-27T13:15:09.390Z,25.55
2019-03-27T13:17:35.589Z,25.11
2019-03-27T13:20:02.248Z,25.98
2019-03-27T13:22:28.518Z,26.21
2019-03-27T13:24:54.705Z,26.03
2019-03-27T13:27:20.861Z,24.06
2019-03-27T13:29:47.444Z,22.36
2019-03-27T13:32:13.648Z,24.20
2019-03-27T13:34:39.794Z,25.04
2019-03-27T13:37:05.958Z,24.68
2019-03-27T13:39:32.152Z,22.34
2019-03-27T13:41:58.821Z,21.68
2019-03-27T13:44:36.388Z,23.05
2019-03-27T13:46:53.217Z,24.32
2019-03-27T13:49:19.548Z,25.09
2019-03-27T13:51:45.819Z,25.62
2019-03-27T13:54:12.303Z,24.99
2019-03-27T13:56:38.473Z,24.87
2019-03-27T13:59:04.639Z,24.82
2019-03-27T14:01:30.944Z,24.43
2019-03-27T14:03:57.217Z,25.45
2019-03-27T14:06:23.379Z,25.09
2019-03-27T14:08:49.571Z,24.29
2019-03-27T14:11:15.835Z,23.78
2019-03-27T14:13:43.599Z,24.38
2019-03-27T14:16:09.978Z,23.66
2019-03-27T14:18:36.149Z,24.31
2019-03-27T14:21:02.408Z,23.85
2019-03-27T14:23:28.710Z,23.75
2019-03-27T14:25:54.873Z,24.41
2019-03-27T14:28:21.031Z,23.34
2019-03-27T14:30:49.020Z,22.25
2019-03-27T14:33:15.185Z,23.35
2019-03-27T14:35:41.348Z,23.69
2019-03-27T14:38:07.641Z,24.31
2019-03-27T14:40:33.799Z,23.58
2019-03-27T14:42:59.966Z,23.26
2019-03-27T14:45:26.165Z,23.66
2019-03-27T14:47:52.423Z,24.53
2019-03-27T14:50:18.592Z,23.00
2019-03-27T14:52:44.794Z,22.89
2019-03-27T14:55:10.958Z,23.49
2019-03-27T14:57:37.530Z,22.65
2019-03-27T15:00:06.651Z,22.26
2019-03-27T15:02:32.911Z,21.53
2019-03-27T15:04:59.324Z,21.55
2019-03-27T15:07:25.621Z,22.40
2019-03-27T15:09:51.775Z,23.05
2019-03-27T15:12:18.009Z,21.03
2019-03-27T15:14:44.301Z,21.93
2019-03-27T15:17:10.573Z,21.63
2019-03-27T15:19:36.845Z,21.60
2019-03-27T15:22:03.034Z,22.45
2019-03-27T15:24:29.299Z,23.41
2019-03-27T15:26:55.458Z,23.61
2019-03-27T15:29:24.357Z,23.28
2019-03-27T15:31:50.515Z,21.14
2019-03-27T15:34:16.679Z,22.26
2019-03-27T15:36:42.967Z,22.21
2019-03-27T15:39:09.220Z,20.75
2019-03-27T15:41:35.377Z,20.45
2019-03-27T15:44:01.681Z,20.29
2019-03-27T15:46:27.948Z,21.42
2019-03-27T15:48:54.206Z,22.11
2019-03-27T15:51:20.410Z,21.67
2019-03-27T15:53:47.487Z,21.95
2019-03-27T15:56:13.856Z,22.62
2019-03-27T15:58:40.049Z,22.59
2019-03-27T16:01:06.810Z,22.42
2019-03-27T16:03:32.979Z,22.26
2019-03-27T16:05:59.268Z,21.94
2019-03-27T16:08:25.429Z,21.82
2019-03-27T16:10:51.586Z,21.90
2019-03-27T16:13:18.657Z,22.16
2019-03-27T16:15:44.807Z,22.10
2019-03-27T16:18:11.063Z,21.82
2019-03-27T16:20:37.360Z,21.67
2019-03-27T16:23:03.626Z,21.64
2019-03-27T16:25:29.785Z,21.74
2019-03-27T16:27:55.999Z,21.48
2019-03-27T16:30:22.254Z,21.16
2019-03-27T16:32:48.428Z,20.95
2019-03-27T16:35:14.641Z,20.62
2019-03-27T16:37:40.792Z,20.23
2019-03-27T16:40:08.044Z,20.18
2019-03-27T16:42:34.330Z,20.49
2019-03-27T16:45:00.502Z,20.17
2019-03-27T16:47:26.769Z,20.13
2019-03-27T16:49:52.960Z,19.57
2019-03-27T16:52:19.147Z,19.55
2019-03-27T16:54:45.305Z,19.70
2019-03-27T16:57:11.496Z,19.72
2019-03-27T16:59:37.771Z,19.64
2019-03-27T17:02:04.661Z,19.75
2019-03-27T17:04:30.958Z,19.67
2019-03-27T17:06:57.112Z,19.51
2019-03-27T17:09:23.267Z,19.45
2019-03-27T17:11:49.814Z,19.26
2019-03-27T17:14:15.983Z,19.32
2019-03-27T17:16:42.551Z,19.22
2019-03-27T17:19:08.739Z,19.25
2019-03-27T17:21:34.904Z,19.24
2019-03-27T17:24:01.077Z,18.65
2019-03-27T17:26:27.385Z,18.64
2019-03-27T17:28:53.649Z,18.70
2019-03-27T17:31:19.802Z,18.76
2019-03-27T17:33:46.006Z,18.77
2019-03-27T17:36:12.168Z,18.65
2019-03-27T17:38:38.336Z,18.53
2019-03-27T17:41:04.538Z,18.57
2019-03-27T17:43:30.699Z,18.37
2019-03-27T17:45:56.851Z,18.45
2019-03-27T17:48:23.067Z,18.43
2019-03-27T17:50:49.228Z,18.43
2019-03-27T17:53:15.502Z,18.41
2019-03-27T17:55:41.702Z,18.17
2019-03-27T17:58:07.870Z,17.87
2019-03-27T18:00:47.007Z,17.89
2019-03-27T18:03:13.204Z,17.48
2019-03-27T18:05:42.460Z,17.63
2019-03-27T18:08:08.666Z,17.69
2019-03-27T18:10:34.831Z,17.51
2019-03-27T18:13:01.011Z,17.58
2019-03-27T18:15:27.297Z,17.79
2019-03-27T18:17:53.469Z,17.81
2019-03-27T18:20:19.646Z,17.61
2019-03-27T18:22:46.259Z,17.66
2019-03-27T18:25:12.429Z,17.51
2019-03-27T18:27:38.603Z,17.42
2019-03-27T18:30:05.804Z,17.59
2019-03-27T18:32:31.980Z,17.43
2019-03-27T18:34:58.152Z,17.00
2019-03-27T18:37:24.349Z,16.51
2019-03-27T18:39:50.521Z,16.26
2019-03-27T18:42:16.693Z,15.94
2019-03-27T18:44:42.983Z,16.12
2019-03-27T18:47:09.252Z,16.26
2019-03-27T18:49:35.444Z,16.20
2019-03-27T18:52:01.773Z,16.13
2019-03-27T18:54:28.031Z,16.01
2019-03-27T18:56:54.191Z,15.99
2019-03-27T18:59:20.483Z,16.12
2019-03-27T19:01:46.645Z,16.42
2019-03-27T19:04:13.003Z,16.36
2019-03-27T19:06:39.213Z,16.49
2019-03-27T19:09:07.295Z,16.60
2019-03-27T19:11:33.552Z,16.47
2019-03-27T19:13:59.866Z,16.44
2019-03-27T19:16:26.029Z,16.23
2019-03-27T19:18:52.186Z,16.37
2019-03-27T19:21:18.383Z,16.44
2019-03-27T19:23:44.543Z,16.43
2019-03-27T19:26:10.705Z,16.43
2019-03-27T19:28:36.906Z,16.34
2019-03-27T19:31:03.693Z,16.23
2019-03-27T19:33:29.943Z,16.34
2019-03-27T19:35:56.169Z,16.29
2019-03-27T19:38:22.337Z,16.25
2019-03-27T19:40:48.498Z,16.12
2019-03-27T19:43:14.697Z,15.95
2019-03-27T19:45:41.075Z,15.91
2019-03-27T19:48:07.240Z,16.03
2019-03-27T19:50:33.430Z,16.08
2019-03-27T19:52:59.594Z,16.15
2019-03-27T19:55:25.757Z,16.26
2019-03-27T19:57:51.972Z,16.26
2019-03-27T20:00:19.636Z,16.29
2019-03-27T20:02:45.797Z,16.28
2019-03-27T20:05:12.293Z,16.49
2019-03-27T20:07:38.460Z,16.68
2019-03-27T20:10:06.154Z,16.64
2019-03-27T20:12:32.347Z,16.63
2019-03-27T20:15:11.116Z,16.62
2019-03-27T20:17:26.729Z,16.62
2019-03-27T20:19:52.933Z,16.41
2019-03-27T20:22:19.098Z,16.38
2019-03-27T20:24:45.258Z,16.30
2019-03-27T20:27:11.446Z,15.70
2019-03-27T20:29:37.716Z,16.34
2019-03-27T20:32:03.878Z,16.43
2019-03-27T20:34:30.085Z,16.46
2019-03-27T20:36:56.251Z,16.28
2019-03-27T20:39:22.409Z,15.89
2019-03-27T20:41:48.610Z,15.84
2019-03-27T20:44:14.770Z,15.74
2019-03-27T20:46:40.938Z,15.78
2019-03-27T20:49:07.120Z,15.85
2019-03-27T20:51:33.279Z,15.83
2019-03-27T20:54:01.406Z,15.81
2019-03-27T20:56:27.645Z,15.75
2019-03-27T20:58:53.807Z,15.75
2019-03-27T21:01:19.981Z,15.64
2019-03-27T21:03:46.294Z,15.53
2019-03-27T21:06:12.784Z,15.37
2019-03-27T21:08:39.045Z,15.43
2019-03-27T21:11:05.242Z,15.49
2019-03-27T21:13:31.398Z,15.38
2019-03-27T21:15:57.569Z,13.25
2019-03-27T21:18:23.923Z,13.82
2019-03-27T21:20:50.080Z,14.32
2019-03-27T21:23:16.230Z,14.75
2019-03-27T21:25:42.427Z,14.36
2019-03-27T21:28:08.594Z,13.96
2019-03-27T21:30:34.853Z,13.81
2019-03-27T21:33:01.046Z,13.67
2019-03-27T21:35:27.194Z,14.00
2019-03-27T21:37:53.349Z,14.26
2019-03-27T21:40:19.653Z,14.59
2019-03-27T21:42:45.819Z,14.48
2019-03-27T21:45:12.175Z,14.61
2019-03-27T21:47:38.481Z,14.45
2019-03-27T21:50:06.050Z,14.72
2019-03-27T21:52:32.209Z,14.29
2019-03-27T21:54:58.404Z,14.47
2019-03-27T21:57:24.632Z,14.10
2019-03-27T21:59:50.905Z,13.53
2019-03-27T22:02:17.258Z,13.13
2019-03-27T22:04:43.444Z,13.61
2019-03-27T22:07:09.597Z,13.69
2019-03-27T22:09:35.912Z,13.55
2019-03-27T22:12:02.068Z,13.84
2019-03-27T22:14:28.226Z,13.59
2019-03-27T22:16:54.420Z,13.50
2019-03-27T22:19:20.622Z,12.79
2019-03-27T22:21:46.884Z,11.79
2019-03-27T22:24:13.208Z,12.32
2019-03-27T22:26:39.479Z,12.34
2019-03-27T22:29:05.658Z,12.89
2019-03-27T22:31:31.847Z,12.46
2019-03-27T22:33:58.065Z,13.44
2019-03-27T22:36:24.335Z,13.03
2019-03-27T22:38:50.516Z,13.20
2019-03-27T22:41:16.671Z,12.91
2019-03-27T22:43:42.852Z,13.28
2019-03-27T22:46:09.011Z,13.29
2019-03-27T22:48:35.174Z,12.93
2019-03-27T22:51:01.328Z,13.39
2019-03-27T22:53:27.522Z,12.87
2019-03-27T22:55:53.682Z,11.37
2019-03-27T22:58:19.944Z,12.46
2019-03-27T23:00:48.430Z,12.81
2019-03-27T23:03:18.658Z,12.83
2019-03-27T23:05:42.959Z,12.99
2019-03-27T23:08:09.243Z,12.17
2019-03-27T23:10:35.490Z,12.99
2019-03-27T23:13:01.654Z,12.74
2019-03-27T23:15:27.853Z,13.58
2019-03-27T23:17:54.122Z,13.49
2019-03-27T23:20:22.044Z,12.80
2019-03-27T23:22:48.221Z,13.54
2019-03-27T23:25:14.374Z,13.39
2019-03-27T23:27:40.541Z,13.53
2019-03-27T23:30:07.939Z,13.65
2019-03-27T23:32:34.098Z,13.44
2019-03-27T23:35:00.459Z,14.20
2019-03-27T23:37:26.782Z,13.66
2019-03-27T23:39:52.934Z,13.30
2019-03-27T23:42:19.195Z,13.23
2019-03-27T23:44:45.387Z,13.26
2019-03-27T23:47:11.551Z,12.89
2019-03-27T23:49:37.700Z,12.88
2019-03-27T23:52:03.882Z,13.07
2019-03-27T23:54:30.057Z,12.90
2019-03-27T23:56:56.212Z,12.76
2019-03-27T23:59:22.508Z,12.99
